createdAt,value
2018-03-08T00:00:44.153Z,23.80
2018-03-08T00:03:10.982Z,24.30
2018-03-08T00:05:37.742Z,23.80
2018-03-08T00:08:04.531Z,24.23
2018-03-08T00:10:31.316Z,23.77
2018-03-08T00:12:58.206Z,23.17
2018-03-08T00:15:24.974Z,21.13
2018-03-08T00:17:51.736Z,20.67
2018-03-08T00:20:18.493Z,22.30
2018-03-08T00:22:45.279Z,21.57
2018-03-08T00:25:12.052Z,22.17
2018-03-08T00:27:38.868Z,23.67
2018-03-08T00:30:05.660Z,21.73
2018-03-08T00:32:32.465Z,22.87
2018-03-08T00:34:59.254Z,22.57
2018-03-08T00:37:26.054Z,22.00
2018-03-08T00:39:53.047Z,22.20
2018-03-08T00:42:19.858Z,20.57
2018-03-08T00:44:46.751Z,21.07
2018-03-08T00:47:13.518Z,19.67
2018-03-08T00:49:40.291Z,19.60
2018-03-08T00:52:07.075Z,20.90
2018-03-08T00:54:33.869Z,21.00
2018-03-08T00:57:00.658Z,21.40
2018-03-08T00:59:27.456Z,21.17
2018-03-08T01:01:54.254Z,21.27
2018-03-08T01:04:21.047Z,22.83
2018-03-08T01:06:48.015Z,21.67
2018-03-08T01:09:14.767Z,20.77
2018-03-08T01:11:41.538Z,22.23
2018-03-08T01:14:08.303Z,22.43
2018-03-08T01:16:35.056Z,23.17
2018-03-08T01:19:01.848Z,25.20
2018-03-08T01:21:28.695Z,23.57
2018-03-08T01:23:55.476Z,22.73
2018-03-08T01:26:22.274Z,22.67
2018-03-08T01:28:49.075Z,24.47
2018-03-08T01:31:15.828Z,23.60
2018-03-08T01:33:42.617Z,24.30
2018-03-08T01:36:15.323Z,24.63
2018-03-08T01:38:42.106Z,26.03
2018-03-08T01:41:09.020Z,25.53
2018-03-08T01:43:35.808Z,24.23
2018-03-08T01:46:02.610Z,22.60
2018-03-08T01:48:29.366Z,22.67
2018-03-08T01:50:56.168Z,22.43
2018-03-08T01:53:23.181Z,24.03
2018-03-08T01:55:49.997Z,22.47
2018-03-08T01:58:16.803Z,25.90
2018-03-08T02:00:43.562Z,24.70
2018-03-08T02:03:10.325Z,23.30
2018-03-08T02:05:37.092Z,23.30
2018-03-08T02:08:03.846Z,22.07
2018-03-08T02:10:30.602Z,23.07
2018-03-08T02:12:57.372Z,23.97
2018-03-08T02:15:24.151Z,22.30
2018-03-08T02:17:50.906Z,22.87
2018-03-08T02:20:17.664Z,22.83
2018-03-08T02:22:44.430Z,24.07
2018-03-08T02:25:11.250Z,23.03
2018-03-08T02:27:38.009Z,23.77
2018-03-08T02:30:04.790Z,22.40
2018-03-08T02:32:31.554Z,23.23
2018-03-08T02:34:58.307Z,22.30
2018-03-08T02:37:25.070Z,22.30
2018-03-08T02:39:51.824Z,23.83
2018-03-08T02:42:18.623Z,23.20
2018-03-08T02:44:45.415Z,24.33
2018-03-08T02:47:12.176Z,23.23
2018-03-08T02:49:38.921Z,23.83
2018-03-08T02:52:05.674Z,23.37
2018-03-08T02:54:32.623Z,23.07
2018-03-08T02:56:59.406Z,23.40
2018-03-08T02:59:26.193Z,22.90
2018-03-08T03:01:52.974Z,22.00
2018-03-08T03:04:19.763Z,21.73
2018-03-08T03:06:46.559Z,22.23
2018-03-08T03:09:13.311Z,21.60
2018-03-08T03:11:40.074Z,21.23
2018-03-08T03:14:06.855Z,22.87
2018-03-08T03:16:33.624Z,21.63
2018-03-08T03:19:00.388Z,21.20
2018-03-08T03:21:27.150Z,21.53
2018-03-08T03:23:53.937Z,22.10
2018-03-08T03:26:20.671Z,20.73
2018-03-08T03:28:47.454Z,21.37
2018-03-08T03:31:14.204Z,19.57
2018-03-08T03:33:40.975Z,18.57
2018-03-08T03:36:07.771Z,19.73
2018-03-08T03:38:34.568Z,19.60
2018-03-08T03:41:01.319Z,19.50
2018-03-08T03:43:28.073Z,18.57
2018-03-08T03:45:54.862Z,16.87
2018-03-08T03:48:21.620Z,18.27
2018-03-08T03:50:48.376Z,19.67
2018-03-08T03:53:15.171Z,17.90
2018-03-08T03:55:41.971Z,18.40
2018-03-08T03:58:08.731Z,17.60
2018-03-08T04:00:35.493Z,15.87
2018-03-08T04:03:02.270Z,15.40
2018-03-08T04:05:29.038Z,15.63
2018-03-08T04:07:55.807Z,17.63
2018-03-08T04:10:22.567Z,15.67
2018-03-08T04:12:49.337Z,15.97
2018-03-08T04:15:16.099Z,16.90
2018-03-08T04:17:42.859Z,16.47
2018-03-08T04:20:09.653Z,15.60
2018-03-08T04:22:36.478Z,16.53
2018-03-08T04:25:03.239Z,15.50
2018-03-08T04:27:30.015Z,16.10
2018-03-08T04:29:56.769Z,15.33
2018-03-08T04:32:23.749Z,15.20
2018-03-08T04:34:50.499Z,15.87
2018-03-08T04:37:17.300Z,17.00
2018-03-08T04:39:44.074Z,15.30
2018-03-08T04:42:10.855Z,15.87
2018-03-08T04:44:37.626Z,14.87
2018-03-08T04:47:04.402Z,15.27
2018-03-08T04:49:31.171Z,15.97
2018-03-08T04:51:57.918Z,14.97
2018-03-08T04:54:24.679Z,15.07
2018-03-08T04:56:51.469Z,16.20
2018-03-08T04:59:18.242Z,14.70
2018-03-08T05:01:45.011Z,14.10
2018-03-08T05:04:11.777Z,14.17
2018-03-08T05:06:38.559Z,14.43
2018-03-08T05:09:05.360Z,14.50
2018-03-08T05:11:32.140Z,15.10
2018-03-08T05:13:58.901Z,15.17
2018-03-08T05:16:25.673Z,13.63
2018-03-08T05:18:52.442Z,14.43
2018-03-08T05:21:19.205Z,13.37
2018-03-08T05:23:45.975Z,14.03
2018-03-08T05:26:12.765Z,14.67
2018-03-08T05:28:39.571Z,14.47
2018-03-08T05:31:06.331Z,14.67
2018-03-08T05:33:33.282Z,15.47
2018-03-08T05:36:00.106Z,15.97
2018-03-08T05:38:26.882Z,15.90
2018-03-08T05:40:53.647Z,18.83
2018-03-08T05:43:20.410Z,16.83
2018-03-08T05:45:47.172Z,15.97
2018-03-08T05:48:13.933Z,17.00
2018-03-08T05:50:40.703Z,16.17
2018-03-08T05:53:07.492Z,16.10
2018-03-08T05:55:34.255Z,16.97
2018-03-08T05:58:01.052Z,16.97
2018-03-08T06:00:27.815Z,15.13
2018-03-08T06:02:54.583Z,16.33
2018-03-08T06:05:21.534Z,16.97
2018-03-08T06:07:48.327Z,18.03
2018-03-08T06:10:15.213Z,18.30
2018-03-08T06:12:42.023Z,19.57
2018-03-08T06:15:08.815Z,19.70
2018-03-08T06:17:35.607Z,19.17
2018-03-08T06:20:02.392Z,19.00
2018-03-08T06:22:29.166Z,20.93
2018-03-08T06:24:55.948Z,18.30
2018-03-08T06:27:22.711Z,20.33
2018-03-08T06:29:49.448Z,22.57
2018-03-08T06:32:16.236Z,16.60
2018-03-08T06:34:43.009Z,15.57
2018-03-08T06:37:09.767Z,15.23
2018-03-08T06:39:36.534Z,16.23
2018-03-08T06:42:03.320Z,17.03
2018-03-08T06:44:30.083Z,17.97
2018-03-08T06:46:56.838Z,17.97
2018-03-08T06:49:23.636Z,17.40
2018-03-08T06:51:50.784Z,15.73
2018-03-08T06:54:17.564Z,14.03
2018-03-08T06:56:44.541Z,14.83
2018-03-08T06:59:11.338Z,20.67
2018-03-08T07:01:38.100Z,30.57
2018-03-08T07:04:05.743Z,32.83
2018-03-08T07:06:32.495Z,27.77
2018-03-08T07:08:59.289Z,17.83
2018-03-08T07:11:26.059Z,13.63
2018-03-08T07:13:52.882Z,12.00
2018-03-08T07:16:19.704Z,12.20
2018-03-08T07:18:46.471Z,11.63
2018-03-08T07:21:13.239Z,10.50
2018-03-08T07:23:40.007Z,10.17
2018-03-08T07:26:06.763Z,11.30
2018-03-08T07:28:33.529Z,10.90
2018-03-08T07:31:00.282Z,11.53
2018-03-08T07:33:27.083Z,10.77
2018-03-08T07:35:53.872Z,10.37
2018-03-08T07:38:20.640Z,11.20
2018-03-08T07:40:47.411Z,10.80
2018-03-08T07:43:14.171Z,10.57
2018-03-08T07:45:40.917Z,10.97
2018-03-08T07:48:07.685Z,10.30
2018-03-08T07:50:34.487Z,11.70
2018-03-08T07:53:01.362Z,11.30
2018-03-08T07:55:28.174Z,11.67
2018-03-08T07:57:54.952Z,10.03
2018-03-08T08:00:21.777Z,9.77
2018-03-08T08:02:48.558Z,10.07
2018-03-08T08:05:21.170Z,10.03
2018-03-08T08:07:54.045Z,9.60
2018-03-08T08:10:20.858Z,8.60
2018-03-08T08:12:47.612Z,8.60
2018-03-08T08:15:14.418Z,9.00
2018-03-08T08:17:41.194Z,10.03
2018-03-08T08:20:07.968Z,8.37
2018-03-08T08:22:34.717Z,8.00
2018-03-08T08:25:01.505Z,8.70
2018-03-08T08:27:28.314Z,9.60
2018-03-08T08:29:55.883Z,8.63
2018-03-08T08:32:22.665Z,10.03
2018-03-08T08:34:49.419Z,8.63
2018-03-08T08:37:16.302Z,9.63
2018-03-08T08:39:43.143Z,9.43
2018-03-08T08:42:09.941Z,9.27
2018-03-08T08:44:36.726Z,9.50
2018-03-08T08:47:03.546Z,8.87
2018-03-08T08:49:30.308Z,8.57
2018-03-08T08:51:57.143Z,9.03
2018-03-08T08:54:23.954Z,8.83
2018-03-08T08:56:50.742Z,9.70
2018-03-08T08:59:17.555Z,8.83
2018-03-08T09:01:44.331Z,9.80
2018-03-08T09:04:11.100Z,10.17
2018-03-08T09:06:38.532Z,9.73
2018-03-08T09:09:05.310Z,9.53
2018-03-08T09:11:32.072Z,9.80
2018-03-08T09:13:58.831Z,10.17
2018-03-08T09:16:25.594Z,10.37
2018-03-08T09:18:52.364Z,10.33
2018-03-08T09:21:19.320Z,9.47
2018-03-08T09:23:46.097Z,9.67
2018-03-08T09:26:12.899Z,10.40
2018-03-08T09:28:39.652Z,9.63
2018-03-08T09:31:06.478Z,11.53
2018-03-08T09:33:33.866Z,11.13
2018-03-08T09:36:00.634Z,10.93
2018-03-08T09:38:27.370Z,9.67
2018-03-08T09:40:54.381Z,10.73
2018-03-08T09:43:21.177Z,10.77
2018-03-08T09:45:47.955Z,9.73
2018-03-08T09:48:14.737Z,9.47
2018-03-08T09:50:41.544Z,10.53
2018-03-08T09:53:08.347Z,10.60
2018-03-08T09:55:35.128Z,11.10
2018-03-08T09:58:01.920Z,10.50
2018-03-08T10:00:28.683Z,10.93
2018-03-08T10:02:55.450Z,9.77
2018-03-08T10:05:22.251Z,10.03
2018-03-08T10:07:49.079Z,9.63
2018-03-08T10:10:15.835Z,9.50
2018-03-08T10:12:42.587Z,10.20
2018-03-08T10:15:09.335Z,9.83
2018-03-08T10:17:36.208Z,9.50
2018-03-08T10:20:03.339Z,8.77
2018-03-08T10:22:30.068Z,8.87
2018-03-08T10:24:56.814Z,9.17
2018-03-08T10:27:23.599Z,10.30
2018-03-08T10:29:50.386Z,9.20
2018-03-08T10:32:17.471Z,9.13
2018-03-08T10:34:44.237Z,10.30
2018-03-08T10:37:11.028Z,10.47
2018-03-08T10:39:37.810Z,11.00
2018-03-08T10:42:04.580Z,13.50
2018-03-08T10:44:31.467Z,12.00
2018-03-08T10:46:58.288Z,14.60
2018-03-08T10:49:25.040Z,13.07
2018-03-08T10:51:51.826Z,12.30
2018-03-08T10:54:18.609Z,13.10
2018-03-08T10:56:45.434Z,15.67
2018-03-08T10:59:12.951Z,13.20
2018-03-08T11:01:44.887Z,8.37
2018-03-08T11:04:14.632Z,4.40
2018-03-08T11:06:41.372Z,4.13
2018-03-08T11:12:15.276Z,6.77
2018-03-08T11:14:42.059Z,7.17
2018-03-08T11:17:08.866Z,6.30
2018-03-08T11:19:35.760Z,6.83
2018-03-08T11:22:02.539Z,7.37
2018-03-08T11:24:29.327Z,8.57
2018-03-08T11:26:56.091Z,7.13
2018-03-08T11:29:22.995Z,7.63
2018-03-08T11:31:49.768Z,8.57
2018-03-08T11:34:16.558Z,7.40
2018-03-08T11:36:43.344Z,7.27
2018-03-08T11:39:10.143Z,7.13
2018-03-08T11:41:36.902Z,6.40
2018-03-08T11:44:03.802Z,7.30
2018-03-08T11:46:30.661Z,8.13
2018-03-08T11:48:57.466Z,8.10
2018-03-08T11:51:24.235Z,8.27
2018-03-08T11:53:50.988Z,8.20
2018-03-08T11:56:17.816Z,7.30
2018-03-08T11:58:44.630Z,8.00
2018-03-08T12:01:11.410Z,6.90
2018-03-08T12:03:38.187Z,8.63
2018-03-08T12:06:04.981Z,7.93
2018-03-08T12:08:31.759Z,6.90
2018-03-08T12:10:58.547Z,6.80
2018-03-08T12:13:25.300Z,8.03
2018-03-08T12:15:52.438Z,8.10
2018-03-08T12:18:19.711Z,8.43
2018-03-08T12:20:46.551Z,8.53
2018-03-08T12:23:13.331Z,8.07
2018-03-08T12:28:23.942Z,11.73
2018-03-08T12:30:50.728Z,8.20
2018-03-08T12:33:17.515Z,8.20
2018-03-08T12:35:44.276Z,10.10
2018-03-08T12:38:11.133Z,8.27
2018-03-08T12:40:37.891Z,8.20
2018-03-08T12:43:04.653Z,8.83
2018-03-08T12:45:31.418Z,9.30
2018-03-08T12:47:58.197Z,12.37
2018-03-08T12:50:24.971Z,12.17
2018-03-08T12:52:51.754Z,10.07
2018-03-08T12:55:18.541Z,10.53
2018-03-08T12:57:45.309Z,10.57
2018-03-08T13:00:12.063Z,8.90
2018-03-08T13:02:38.822Z,8.70
2018-03-08T13:05:05.613Z,7.20
2018-03-08T13:07:32.389Z,8.10
2018-03-08T13:09:59.222Z,9.37
2018-03-08T13:12:39.406Z,8.43
2018-03-08T13:24:26.586Z,16.93
2018-03-08T13:26:53.387Z,10.83
2018-03-08T13:29:20.158Z,10.23
2018-03-08T13:31:46.913Z,13.07
2018-03-08T13:34:13.704Z,10.43
2018-03-08T13:36:40.558Z,9.97
2018-03-08T13:39:07.297Z,10.20
2018-03-08T13:41:34.048Z,9.97
2018-03-08T13:44:00.843Z,11.33
2018-03-08T13:46:27.611Z,11.53
2018-03-08T13:48:54.371Z,16.03
2018-03-08T13:51:21.210Z,11.77
2018-03-08T13:53:47.962Z,11.97
2018-03-08T13:56:14.718Z,11.03
2018-03-08T13:58:41.510Z,10.97
2018-03-08T14:01:08.339Z,10.10
2018-03-08T14:03:35.101Z,8.00
2018-03-08T14:06:02.427Z,7.43
2018-03-08T14:08:29.315Z,7.43
2018-03-08T14:10:56.108Z,8.43
2018-03-08T14:13:22.895Z,6.73
2018-03-08T14:15:49.688Z,7.63
2018-03-08T14:18:16.452Z,8.27
2018-03-08T14:21:10.157Z,9.23
2018-03-08T14:23:46.198Z,8.53
2018-03-08T14:26:26.769Z,9.33
2018-03-08T14:28:58.268Z,11.37
2018-03-08T14:31:25.031Z,10.50
2018-03-08T14:33:57.045Z,10.07
2018-03-08T14:36:23.987Z,9.33
2018-03-08T14:39:12.495Z,13.13
2018-03-08T14:41:39.246Z,15.13
2018-03-08T14:44:06.075Z,11.67
2018-03-08T14:46:32.840Z,9.70
2018-03-08T14:48:59.636Z,11.67
2018-03-08T14:51:26.446Z,13.00
2018-03-08T14:53:53.203Z,11.20
2018-03-08T14:56:19.962Z,12.13
2018-03-08T14:58:46.733Z,13.93
2018-03-08T15:01:13.510Z,12.30
2018-03-08T15:03:40.399Z,13.50
2018-03-08T15:09:50.962Z,15.17
2018-03-08T15:15:24.547Z,11.27
2018-03-08T15:17:54.255Z,11.07
2018-03-08T15:20:21.023Z,11.67
2018-03-08T15:22:47.852Z,10.60
2018-03-08T15:25:14.705Z,11.23
2018-03-08T15:27:41.483Z,11.90
2018-03-08T15:30:08.300Z,11.33
2018-03-08T15:32:35.067Z,16.23
2018-03-08T15:35:01.893Z,19.37
2018-03-08T15:37:28.663Z,20.80
2018-03-08T15:39:56.598Z,24.43
2018-03-08T15:42:23.363Z,25.13
2018-03-08T15:44:50.176Z,22.33
2018-03-08T15:47:17.005Z,24.07
2018-03-08T15:49:43.776Z,24.03
2018-03-08T15:52:10.547Z,22.63
2018-03-08T15:54:37.385Z,26.63
2018-03-08T15:57:04.163Z,21.17
2018-03-08T15:59:31.740Z,17.80
2018-03-08T16:01:58.555Z,24.67
2018-03-08T16:04:25.349Z,16.00
2018-03-08T16:07:07.727Z,17.10
2018-03-08T16:09:40.342Z,14.97
2018-03-08T16:12:07.143Z,14.73
2018-03-08T16:14:33.942Z,21.37
2018-03-08T16:17:01.219Z,16.13
2018-03-08T16:19:28.093Z,15.60
2018-03-08T16:21:54.863Z,16.40
2018-03-08T16:24:21.741Z,19.53
2018-03-08T16:26:59.441Z,26.43
2018-03-08T16:29:26.844Z,22.90
2018-03-08T16:32:02.192Z,18.27
2018-03-08T16:34:29.040Z,25.67
2018-03-08T16:36:56.191Z,25.27
2018-03-08T16:39:23.963Z,19.23
2018-03-08T16:41:51.555Z,23.90
2018-03-08T16:44:29.301Z,19.83
2018-03-08T16:46:59.616Z,21.50
2018-03-08T16:49:26.681Z,22.07
2018-03-08T16:51:53.452Z,23.23
2018-03-08T16:54:23.794Z,20.10
2018-03-08T16:56:50.761Z,19.40
2018-03-08T16:59:17.596Z,18.53
2018-03-08T17:01:44.602Z,18.10
2018-03-08T17:04:11.383Z,19.13
2018-03-08T17:06:38.156Z,18.47
2018-03-08T17:09:04.971Z,18.73
2018-03-08T17:11:31.732Z,17.90
2018-03-08T17:13:58.676Z,21.30
2018-03-08T17:16:25.495Z,21.50
2018-03-08T17:18:52.311Z,23.00
2018-03-08T17:21:19.307Z,21.93
2018-03-08T17:23:46.098Z,23.57
2018-03-08T17:26:12.892Z,26.53
2018-03-08T17:28:39.678Z,27.97
2018-03-08T17:31:06.438Z,32.67
2018-03-08T17:33:33.423Z,34.13
2018-03-08T17:36:01.041Z,34.63
2018-03-08T17:38:27.794Z,33.73
2018-03-08T17:40:54.991Z,30.83
2018-03-08T17:43:22.628Z,29.23
2018-03-08T17:45:49.387Z,31.13
2018-03-08T17:48:16.202Z,31.87
2018-03-08T17:50:44.078Z,28.83
2018-03-08T17:53:14.159Z,28.27
2018-03-08T17:55:41.557Z,28.93
2018-03-08T17:58:08.352Z,28.43
2018-03-08T18:00:35.097Z,27.57
2018-03-08T18:03:01.855Z,27.43
2018-03-08T18:05:28.807Z,26.17
2018-03-08T18:07:55.618Z,24.13
2018-03-08T18:10:22.475Z,23.67
2018-03-08T18:12:49.835Z,21.27
2018-03-08T18:15:16.635Z,19.43
2018-03-08T18:17:54.684Z,21.67
2018-03-08T18:20:21.467Z,21.73
2018-03-08T18:22:48.259Z,21.37
2018-03-08T18:25:15.035Z,21.43
2018-03-08T18:27:41.873Z,16.37
2018-03-08T18:30:08.632Z,16.43
2018-03-08T18:32:35.403Z,13.83
2018-03-08T18:35:12.564Z,15.83
2018-03-08T18:37:39.715Z,14.43
2018-03-08T18:40:07.988Z,13.03
2018-03-08T18:42:35.037Z,13.00
2018-03-08T18:45:02.136Z,11.63
2018-03-08T18:47:29.039Z,16.27
2018-03-08T18:49:56.153Z,17.80
2018-03-08T18:52:23.027Z,18.47
2018-03-08T18:54:49.842Z,20.17
2018-03-08T18:57:16.631Z,21.47
2018-03-08T18:59:43.439Z,24.27
2018-03-08T19:02:12.264Z,20.20
2018-03-08T19:04:39.039Z,18.00
2018-03-08T19:07:05.842Z,17.10
2018-03-08T19:09:32.838Z,18.10
2018-03-08T19:11:59.929Z,17.63
2018-03-08T19:14:26.734Z,18.43
2018-03-08T19:16:54.645Z,17.77
2018-03-08T19:19:21.600Z,19.17
2018-03-08T19:21:48.639Z,20.47
2018-03-08T19:24:15.451Z,19.43
2018-03-08T19:26:42.739Z,20.07
2018-03-08T19:29:09.812Z,21.70
2018-03-08T19:31:37.036Z,20.33
2018-03-08T19:34:04.046Z,20.47
2018-03-08T19:36:31.017Z,20.60
2018-03-08T19:38:57.898Z,20.93
2018-03-08T19:41:24.828Z,22.67
2018-03-08T19:43:52.028Z,22.53
2018-03-08T19:46:19.052Z,23.73
2018-03-08T19:48:45.885Z,21.60
2018-03-08T19:51:14.773Z,23.50
2018-03-08T19:53:43.959Z,23.47
2018-03-08T19:56:11.063Z,35.67
2018-03-08T19:58:38.542Z,26.40
2018-03-08T20:01:09.200Z,24.60
2018-03-08T20:03:36.813Z,25.07
2018-03-08T20:06:04.158Z,24.47
2018-03-08T20:08:30.995Z,21.83
2018-03-08T20:10:58.014Z,27.97
2018-03-08T20:13:24.932Z,26.40
2018-03-08T20:15:51.810Z,51.20
2018-03-08T20:18:18.603Z,28.93
2018-03-08T20:20:45.576Z,26.20
2018-03-08T20:23:12.663Z,24.13
2018-03-08T20:25:39.515Z,25.30
2018-03-08T20:28:06.685Z,26.37
2018-03-08T20:30:33.483Z,28.73
2018-03-08T20:33:00.296Z,32.63
2018-03-08T20:35:27.396Z,29.20
2018-03-08T20:37:54.183Z,30.70
2018-03-08T20:40:21.319Z,32.73
2018-03-08T20:42:48.104Z,35.37
2018-03-08T20:45:14.907Z,35.30
2018-03-08T20:47:42.024Z,31.80
2018-03-08T20:50:09.298Z,30.03
2018-03-08T20:52:36.111Z,27.37
2018-03-08T20:55:02.949Z,25.23
2018-03-08T20:57:29.805Z,25.23
2018-03-08T20:59:56.613Z,24.10
2018-03-08T21:02:23.431Z,25.80
2018-03-08T21:04:50.234Z,30.13
2018-03-08T21:07:17.093Z,31.57
2018-03-08T21:09:43.893Z,30.73
2018-03-08T21:15:11.221Z,27.57
2018-03-08T21:17:37.999Z,25.90
2018-03-08T21:20:04.778Z,25.47
2018-03-08T21:22:31.557Z,22.93
2018-03-08T21:24:58.402Z,23.87
2018-03-08T21:27:25.246Z,24.43
2018-03-08T21:29:52.005Z,23.93
2018-03-08T21:32:18.794Z,22.93
2018-03-08T21:34:45.591Z,27.23
2018-03-08T21:37:13.238Z,23.27
2018-03-08T21:39:45.384Z,24.80
2018-03-08T21:42:12.191Z,25.47
2018-03-08T21:44:38.996Z,25.67
2018-03-08T21:47:05.943Z,25.93
2018-03-08T21:49:32.750Z,25.13
2018-03-08T21:51:59.698Z,27.37
2018-03-08T21:54:26.570Z,27.43
2018-03-08T21:56:53.476Z,26.50
2018-03-08T21:59:20.402Z,26.13
2018-03-08T22:01:47.901Z,27.63
2018-03-08T22:04:14.879Z,28.23
2018-03-08T22:06:41.716Z,25.73
2018-03-08T22:09:08.848Z,26.20
2018-03-08T22:11:35.919Z,26.97
2018-03-08T22:14:02.758Z,26.70
2018-03-08T22:16:29.564Z,27.83
2018-03-08T22:18:56.373Z,26.73
2018-03-08T22:21:23.677Z,23.50
2018-03-08T22:23:50.576Z,23.00
2018-03-08T22:26:17.644Z,22.67
2018-03-08T22:28:44.640Z,23.60
2018-03-08T22:31:11.421Z,30.93
2018-03-08T22:33:38.381Z,24.67
2018-03-08T22:36:05.203Z,24.70
2018-03-08T22:38:33.180Z,22.87
2018-03-08T22:41:00.004Z,23.57
2018-03-08T22:43:26.807Z,26.73
2018-03-08T22:45:53.615Z,22.93
2018-03-08T22:48:20.406Z,20.17
2018-03-08T22:50:47.540Z,20.27
2018-03-08T22:53:14.460Z,19.67
2018-03-08T22:55:41.233Z,18.67
2018-03-08T22:58:08.011Z,19.17
2018-03-08T23:00:34.876Z,18.63
2018-03-08T23:03:07.360Z,18.00
2018-03-08T23:05:34.116Z,17.30
2018-03-08T23:08:01.029Z,18.37
2018-03-08T23:10:27.912Z,18.03
2018-03-08T23:12:54.747Z,21.10
2018-03-08T23:15:21.524Z,20.97
2018-03-08T23:17:48.299Z,18.90
2018-03-08T23:20:15.064Z,18.93
2018-03-08T23:22:41.837Z,19.67
2018-03-08T23:25:08.642Z,18.23
2018-03-08T23:27:35.492Z,18.30
2018-03-08T23:30:02.251Z,17.03
2018-03-08T23:32:29.041Z,18.10
2018-03-08T23:34:56.544Z,17.97
2018-03-08T23:37:23.319Z,17.90
2018-03-08T23:39:50.070Z,17.23
2018-03-08T23:42:16.840Z,17.03
2018-03-08T23:44:43.671Z,19.37
2018-03-08T23:47:10.499Z,16.50
2018-03-08T23:49:37.293Z,17.57
2018-03-08T23:52:04.060Z,16.67
2018-03-08T23:54:30.886Z,15.40
2018-03-08T23:56:57.722Z,15.47
2018-03-08T23:59:35.399Z,14.03
